Time;durP1;ratioP1;P1;durP2;ratioP2;P2;SDS_P1;SDS_P2;PMS_P1;PMS_P2;Temp;Humidity;BMP_temperature;BMP_pressure;BME280_temperature;BME280_humidity;BME280_pressure;Samples;Min_cycle;Max_cycle;Signal;HPM_P1;HPM_P2
2023/06/19 00:01:06;;;;;;;;;;;;;;;22.28;47.32;100327.12;5403204;32;37034;-68
2023/06/19 00:04:09;;;;;;;;;;;;;;;22.10;47.54;100322.44;5391921;32;35104;-68
2023/06/19 00:07:11;;;;;;;;;;;;;;;22.03;48.13;100317.75;5404997;32;34236;-68
2023/06/19 00:10:13;;;;;;;;;;;;;;;22.36;47.38;100319.28;5407103;32;34915;-74
2023/06/19 00:13:15;;;;;;;;;;;;;;;22.36;47.10;100319.28;5400842;32;35132;-76
2023/06/19 00:16:17;;;;;;;;;;;;;;;22.22;47.62;100322.31;5408425;32;34619;-76
2023/06/19 00:19:19;;;;;;;;;;;;;;;21.04;51.10;100325.28;5403333;32;34909;-68
2023/06/19 00:22:22;;;;;;;;;;;;;;;20.93;51.94;100327.12;5399598;32;34704;-75
2023/06/19 00:25:24;;;;;;;;;;;;;;;21.33;51.02;100333.56;5405956;32;35191;-73
2023/06/19 00:28:26;;;;;;;;;;;;;;;21.88;49.92;100338.63;5402243;32;34259;-68
2023/06/19 00:31:28;;;;;;;;;;;;;;;21.73;50.07;100326.59;5409235;32;33851;-68
2023/06/19 00:34:33;;;;;;;;;;;;;;;20.92;52.01;100328.13;5396497;32;34839;-74
2023/06/19 00:37:35;;;;;;;;;;;;;;;20.93;52.21;100321.78;5408698;32;34389;-76
2023/06/19 00:40:37;;;;;;;;;;;;;;;21.77;50.40;100317.34;5401464;32;35341;-68
2023/06/19 00:43:39;;;;;;;;;;;;;;;22.12;49.19;100312.44;5387324;32;35414;-69
2023/06/19 00:46:41;;;;;;;;;;;;;;;21.99;49.39;100310.97;5406341;32;34235;-74
2023/06/19 00:49:43;;;;;;;;;;;;;;;21.18;51.73;100324.09;5401230;32;34656;-75
2023/06/19 00:52:45;;;;;;;;;;;;;;;20.98;52.40;100320.44;5407405;32;34671;-75
2023/06/19 00:55:47;;;;;;;;;;;;;;;20.41;54.05;100318.03;5403354;32;34126;-68
2023/06/19 00:58:49;;;;;;;;;;;;;;;20.62;53.42;100321.69;5404524;32;34958;-75
2023/06/19 01:01:51;;;;;;;;;;;;;;;20.62;53.40;100315.50;5403606;32;34303;-75
2023/06/19 01:04:53;;;;;;;;;;;;;;;20.57;53.04;100315.00;5397834;32;34931;-75
2023/06/19 01:07:58;;;;;;;;;;;;;;;21.03;52.35;100317.38;5399765;32;34752;-73
2023/06/19 01:11:00;;;;;;;;;;;;;;;21.36;51.15;100309.22;5400682;32;35412;-67
2023/06/19 01:14:18;;;;;;;;;;;;;;;20.59;53.27;100308.56;5393583;32;34843;-67
2023/06/19 01:17:21;;;;;;;;;;;;;;;21.05;52.16;100315.44;5387501;32;35300;-75
2023/06/19 01:20:23;;;;;;;;;;;;;;;20.59;53.60;100315.72;5407081;32;35383;-75
2023/06/19 01:23:26;;;;;;;;;;;;;;;20.63;53.64;100314.50;5388416;32;34704;-67
2023/06/19 01:26:28;;;;;;;;;;;;;;;21.13;52.11;100306.78;5400622;32;34924;-67
2023/06/19 01:29:30;;;;;;;;;;;;;;;20.25;54.65;100313.94;5391266;32;35238;-74
2023/06/19 01:32:37;;;;;;;;;;;;;;;20.60;54.23;100312.94;5402390;32;34813;-76
2023/06/19 01:35:40;;;;;;;;;;;;;;;20.48;54.49;100312.13;5407837;32;35076;-74
2023/06/19 01:38:42;;;;;;;;;;;;;;;20.57;54.57;100304.34;5401129;32;35767;-75
2023/06/19 01:41:44;;;;;;;;;;;;;;;21.28;52.54;100305.47;5401000;32;34961;-75
2023/06/19 01:44:46;;;;;;;;;;;;;;;20.99;53.09;100295.41;5390146;32;35269;-73
2023/06/19 01:47:48;;;;;;;;;;;;;;;20.84;53.10;100296.72;5385645;32;34955;-75
2023/06/19 01:50:50;;;;;;;;;;;;;;;20.31;55.07;100293.94;5403365;32;34552;-67
2023/06/19 01:53:52;;;;;;;;;;;;;;;20.60;54.18;100294.22;5399831;32;35632;-73
2023/06/19 01:56:54;;;;;;;;;;;;;;;21.53;51.61;100289.06;5409718;32;35688;-76
2023/06/19 01:59:56;;;;;;;;;;;;;;;21.63;51.17;100297.97;5402770;32;35385;-75
2023/06/19 02:02:58;;;;;;;;;;;;;;;21.15;52.58;100294.97;5407206;32;34708;-68
2023/06/19 02:06:00;;;;;;;;;;;;;;;20.11;56.05;100297.38;5403568;32;34877;-68
2023/06/19 02:09:02;;;;;;;;;;;;;;;19.95;56.95;100289.72;5404793;32;35588;-68
2023/06/19 02:12:04;;;;;;;;;;;;;;;19.97;56.86;100299.31;5409665;32;34809;-68
2023/06/19 02:15:07;;;;;;;;;;;;;;;20.18;56.47;100304.75;5390434;32;35633;-69
2023/06/19 02:18:09;;;;;;;;;;;;;;;20.83;54.57;100297.69;5394535;32;35357;-69
2023/06/19 02:21:10;;;;;;;;;;;;;;;20.33;55.66;100302.66;5403480;32;34930;-68
2023/06/19 02:24:12;;;;;;;;;;;;;;;20.41;55.87;100304.69;5392783;32;35664;-67
2023/06/19 02:27:15;;;;;;;;;;;;;;;20.62;55.24;100303.00;5404334;32;35560;-67
2023/06/19 02:30:17;;;;;;;;;;;;;;;20.13;57.00;100311.41;5390202;32;34428;-67
2023/06/19 02:33:19;;;;;;;;;;;;;;;20.55;55.55;100307.97;5405999;32;34980;-75
2023/06/19 02:36:21;;;;;;;;;;;;;;;21.10;54.07;100311.41;5405093;32;35306;-75
2023/06/19 02:39:23;;;;;;;;;;;;;;;19.35;58.97;100318.37;5408227;32;35048;-76
2023/06/19 02:42:25;;;;;;;;;;;;;;;19.37;59.38;100307.56;5400898;32;34790;-75
2023/06/19 02:45:27;;;;;;;;;;;;;;;19.36;59.27;100309.41;5405561;32;35229;-68
2023/06/19 02:48:29;;;;;;;;;;;;;;;19.34;59.11;100318.50;5405174;32;34517;-75
2023/06/19 02:51:31;;;;;;;;;;;;;;;19.38;59.11;100320.78;5405184;32;35459;-76
2023/06/19 02:54:33;;;;;;;;;;;;;;;19.90;57.69;100323.91;5408874;32;35337;-75
2023/06/19 02:57:35;;;;;;;;;;;;;;;20.23;56.47;100323.06;5401993;32;35082;-67
2023/06/19 03:00:37;;;;;;;;;;;;;;;19.30;59.93;100325.84;5394605;32;34869;-72
2023/06/19 03:03:40;;;;;;;;;;;;;;;19.28;60.50;100327.78;5399415;32;35491;-67
2023/06/19 03:06:42;;;;;;;;;;;;;;;19.68;58.93;100325.59;5404913;32;34382;-75
2023/06/19 03:09:44;;;;;;;;;;;;;;;19.41;59.84;100328.56;5404563;32;35483;-67
2023/06/19 03:12:46;;;;;;;;;;;;;;;19.45;59.98;100327.38;5399610;32;34803;-67
2023/06/19 03:15:48;;;;;;;;;;;;;;;19.19;60.58;100329.34;5408988;32;34700;-73
2023/06/19 03:18:50;;;;;;;;;;;;;;;19.30;60.66;100330.34;5403614;32;34548;-75
2023/06/19 03:21:54;;;;;;;;;;;;;;;20.15;58.23;100326.31;5407270;32;34864;-67
2023/06/19 03:24:56;;;;;;;;;;;;;;;19.69;58.99;100337.09;5399646;32;34251;-75
2023/06/19 03:27:58;;;;;;;;;;;;;;;19.23;61.33;100337.94;5402479;32;34537;-75
2023/06/19 03:31:00;;;;;;;;;;;;;;;18.82;62.49;100341.91;5404817;32;35078;-75
2023/06/19 03:34:02;;;;;;;;;;;;;;;18.94;62.73;100348.16;5402163;32;35095;-67
2023/06/19 03:37:04;;;;;;;;;;;;;;;19.23;61.04;100351.28;5412018;32;35483;-68
2023/06/19 03:40:09;;;;;;;;;;;;;;;20.48;56.91;100349.50;5403421;32;35506;-75
2023/06/19 03:43:11;;;;;;;;;;;;;;;19.55;59.23;100354.16;5404840;32;35330;-76
2023/06/19 03:46:13;;;;;;;;;;;;;;;19.43;59.71;100353.25;5388903;32;33778;-74
2023/06/19 03:49:15;;;;;;;;;;;;;;;20.11;57.00;100346.22;5404808;32;35526;-67
2023/06/19 03:52:17;;;;;;;;;;;;;;;20.01;57.52;100354.09;5407583;32;35042;-75
2023/06/19 03:55:19;;;;;;;;;;;;;;;20.80;55.13;100344.22;5404521;32;34868;-67
2023/06/19 03:58:21;;;;;;;;;;;;;;;20.13;57.44;100349.63;5393796;32;34700;-75
2023/06/19 04:01:23;;;;;;;;;;;;;;;20.15;57.86;100346.81;5388955;32;34892;-67
2023/06/19 04:04:25;;;;;;;;;;;;;;;20.72;55.57;100341.28;5407628;32;34833;-67
2023/06/19 04:07:28;;;;;;;;;;;;;;;20.40;57.02;100349.22;5403773;32;34746;-67
2023/06/19 04:10:30;;;;;;;;;;;;;;;20.57;56.43;100350.56;5406146;32;34777;-68
2023/06/19 04:13:33;;;;;;;;;;;;;;;21.37;53.83;100351.00;5407122;32;35502;-68
2023/06/19 04:16:35;;;;;;;;;;;;;;;20.23;56.79;100345.25;5403161;32;34916;-68
2023/06/19 04:19:37;;;;;;;;;;;;;;;20.24;57.40;100346.09;5406313;32;34638;-75
2023/06/19 04:22:40;;;;;;;;;;;;;;;20.77;55.77;100338.25;5401306;32;35112;-67
2023/06/19 04:25:42;;;;;;;;;;;;;;;21.18;54.53;100347.31;5406002;32;34444;-74
2023/06/19 04:28:44;;;;;;;;;;;;;;;20.11;57.11;100353.41;5402658;32;34539;-68
2023/06/19 04:31:49;;;;;;;;;;;;;;;19.91;58.21;100349.63;5390466;32;34637;-67
2023/06/19 04:34:51;;;;;;;;;;;;;;;20.22;57.56;100348.91;5393595;32;35106;-74
2023/06/19 04:37:53;;;;;;;;;;;;;;;20.49;56.54;100345.87;5408780;32;34935;-68
2023/06/19 04:40:57;;;;;;;;;;;;;;;20.68;56.18;100336.34;5405439;32;34804;-75
2023/06/19 04:44:03;;;;;;;;;;;;;;;20.82;55.49;100350.25;5399453;32;34836;-76
2023/06/19 04:47:05;;;;;;;;;;;;;;;21.01;55.54;100356.75;5407551;32;34804;-75
2023/06/19 04:50:07;;;;;;;;;;;;;;;21.20;54.90;100356.06;5402099;32;34693;-68
2023/06/19 04:53:09;;;;;;;;;;;;;;;21.35;54.75;100352.13;5401270;32;34802;-69
2023/06/19 04:56:11;;;;;;;;;;;;;;;21.31;54.81;100358.69;5407847;32;34773;-76
2023/06/19 04:59:17;;;;;;;;;;;;;;;21.72;53.58;100357.00;5396295;32;34606;-76
2023/06/19 05:02:19;;;;;;;;;;;;;;;22.01;53.16;100359.81;5405501;32;34296;-68
2023/06/19 05:05:21;;;;;;;;;;;;;;;22.48;51.60;100353.00;5400215;32;34350;-75
2023/06/19 05:08:25;;;;;;;;;;;;;;;23.52;47.70;100348.84;5403244;32;35002;-77
2023/06/19 05:11:27;;;;;;;;;;;;;;;23.69;46.16;100355.31;5403470;32;35947;-68
2023/06/19 05:14:29;;;;;;;;;;;;;;;22.81;48.26;100359.81;5401558;32;34319;-74
2023/06/19 05:17:31;;;;;;;;;;;;;;;22.69;48.48;100368.97;5403864;32;34279;-74
2023/06/19 05:20:33;;;;;;;;;;;;;;;22.52;48.71;100374.97;5401368;32;34439;-73
2023/06/19 05:23:35;;;;;;;;;;;;;;;21.73;50.67;100380.94;5406217;32;35092;-69
2023/06/19 05:26:37;;;;;;;;;;;;;;;21.45;52.05;100379.78;5400208;32;35460;-69
2023/06/19 05:29:39;;;;;;;;;;;;;;;21.54;51.96;100375.47;5400896;32;34878;-72
2023/06/19 05:32:41;;;;;;;;;;;;;;;22.05;50.68;100383.53;5402516;32;34445;-69
2023/06/19 05:35:50;;;;;;;;;;;;;;;22.45;49.61;100377.34;5400376;32;35371;-69
2023/06/19 05:38:52;;;;;;;;;;;;;;;23.85;46.17;100371.66;5390996;32;35330;-70
2023/06/19 05:41:54;;;;;;;;;;;;;;;24.66;44.13;100373.72;5398387;32;35561;-72
2023/06/19 05:44:57;;;;;;;;;;;;;;;24.75;43.16;100375.50;5404711;32;35862;-72
2023/06/19 05:48:00;;;;;;;;;;;;;;;25.04;42.97;100368.09;5365200;32;34643;-73
2023/06/19 05:51:02;;;;;;;;;;;;;;;25.99;40.63;100371.88;5399061;32;34492;-73
2023/06/19 05:54:04;;;;;;;;;;;;;;;25.45;41.30;100371.16;5397973;32;34211;-70
2023/06/19 05:57:06;;;;;;;;;;;;;;;25.05;42.82;100379.69;5396091;32;35808;-75
2023/06/19 06:00:13;;;;;;;;;;;;;;;25.99;41.22;100389.87;5399380;32;35058;-71
2023/06/19 06:03:16;;;;;;;;;;;;;;;25.23;42.85;100393.16;5381914;32;32801;-73
2023/06/19 06:06:18;;;;;;;;;;;;;;;25.53;41.74;100394.59;5383753;32;36041;-80
2023/06/19 06:09:21;;;;;;;;;;;;;;;26.66;39.35;100388.19;5368166;32;34925;-79
2023/06/19 06:12:23;;;;;;;;;;;;;;;27.08;38.46;100384.62;5385247;32;35295;-79
2023/06/19 06:15:25;;;;;;;;;;;;;;;26.94;37.87;100394.16;5383374;32;35889;-72
2023/06/19 06:18:27;;;;;;;;;;;;;;;27.80;36.72;100381.06;5383163;32;34569;-81
2023/06/19 06:21:29;;;;;;;;;;;;;;;26.22;40.14;100396.41;5386732;32;34748;-72
2023/06/19 06:24:31;;;;;;;;;;;;;;;27.82;37.04;100383.59;5367912;32;35140;-71
2023/06/19 06:27:34;;;;;;;;;;;;;;;27.04;38.25;100380.53;5380951;32;35461;-85
2023/06/19 06:30:36;;;;;;;;;;;;;;;29.09;34.21;100380.72;5372663;32;34742;-81
2023/06/19 06:33:38;;;;;;;;;;;;;;;28.51;34.99;100387.47;5377894;32;32946;-75
2023/06/19 06:36:40;;;;;;;;;;;;;;;27.15;37.67;100391.88;5345384;32;34882;-76
2023/06/19 06:40:07;;;;;;;;;;;;;;;28.04;36.33;100393.69;5366421;32;37932;-79
2023/06/19 06:43:10;;;;;;;;;;;;;;;27.85;36.24;100385.13;5361320;32;35666;-70
2023/06/19 06:46:12;;;;;;;;;;;;;;;28.25;36.04;100390.41;5354390;32;34427;-71
2023/06/19 06:49:16;;;;;;;;;;;;;;;30.33;32.91;100397.53;5368466;32;34568;-69
2023/06/19 06:52:18;;;;;;;;;;;;;;;28.91;34.34;100382.84;5364881;32;34594;-77
2023/06/19 06:55:21;;;;;;;;;;;;;;;30.35;32.54;100390.06;5367521;32;34257;-73
2023/06/19 06:58:23;;;;;;;;;;;;;;;30.68;32.06;100393.22;5362308;32;34248;-76
2023/06/19 07:01:26;;;;;;;;;;;;;;;28.57;35.41;100384.06;5351584;32;34340;-67
2023/06/19 07:04:29;;;;;;;;;;;;;;;29.81;33.12;100384.88;5357055;32;34390;-76
2023/06/19 07:07:31;;;;;;;;;;;;;;;30.43;32.49;100389.97;5360437;32;34478;-71
2023/06/19 07:10:34;;;;;;;;;;;;;;;30.05;32.78;100383.78;5366572;32;34287;-77
2023/06/19 07:13:36;;;;;;;;;;;;;;;30.06;32.52;100394.44;5341163;32;34817;-78
2023/06/19 07:16:38;;;;;;;;;;;;;;;30.52;31.51;100391.53;5328689;32;34188;-71
2023/06/19 07:19:43;;;;;;;;;;;;;;;32.02;28.66;100378.00;5367528;32;33262;-76
2023/06/19 07:22:46;;;;;;;;;;;;;;;31.77;28.61;100378.44;5338250;32;34145;-77
2023/06/19 07:25:51;;;;;;;;;;;;;;;31.68;27.87;100376.88;5354505;32;35354;-83
2023/06/19 07:28:53;;;;;;;;;;;;;;;32.71;27.27;100372.47;5352604;32;34633;-82
2023/06/19 07:31:55;;;;;;;;;;;;;;;34.38;24.44;100366.81;5373389;32;34299;-82
2023/06/19 07:34:57;;;;;;;;;;;;;;;35.20;23.39;100367.91;5368952;32;34841;-83
2023/06/19 07:37:59;;;;;;;;;;;;;;;33.17;25.98;100369.06;5367161;32;34241;-77
2023/06/19 07:41:01;;;;;;;;;;;;;;;32.48;27.19;100364.66;5367595;32;34030;-75
2023/06/19 07:44:03;;;;;;;;;;;;;;;35.99;22.56;100363.66;5370575;32;35047;-74
2023/06/19 07:47:06;;;;;;;;;;;;;;;35.74;22.96;100366.41;5371772;32;34387;-76
2023/06/19 07:50:08;;;;;;;;;;;;;;;34.40;24.85;100375.66;5371572;32;35594;-76
2023/06/19 07:53:11;;;;;;;;;;;;;;;33.08;26.57;100370.28;5371369;32;34400;-73
2023/06/19 07:56:15;;;;;;;;;;;;;;;32.55;27.43;100375.56;5352850;32;34135;-84
2023/06/19 07:59:18;;;;;;;;;;;;;;;31.08;29.70;100367.38;5376825;32;35454;-75
2023/06/19 08:02:20;;;;;;;;;;;;;;;33.08;26.92;100370.28;5362019;32;35720;-74
2023/06/19 08:05:24;;;;;;;;;;;;;;;30.65;30.78;100369.16;5369502;32;34280;-79
2023/06/19 08:08:26;;;;;;;;;;;;;;;32.78;27.84;100359.75;5379552;32;35362;-76
2023/06/19 08:11:28;;;;;;;;;;;;;;;35.88;23.93;100356.19;5374460;32;35133;-74
2023/06/19 08:14:31;;;;;;;;;;;;;;;33.28;26.84;100349.34;5381213;32;34631;-71
2023/06/19 08:17:33;;;;;;;;;;;;;;;33.47;26.29;100352.31;5357469;32;34360;-71
2023/06/19 08:20:35;;;;;;;;;;;;;;;34.97;24.46;100346.66;5380173;32;35711;-70
2023/06/19 08:23:43;;;;;;;;;;;;;;;35.51;22.87;100350.66;5363971;32;34617;-70
2023/06/19 08:26:45;;;;;;;;;;;;;;;34.72;23.67;100352.03;5372457;32;34919;-71
2023/06/19 08:29:47;;;;;;;;;;;;;;;33.27;25.98;100353.13;5381211;32;34141;-75
2023/06/19 08:32:50;;;;;;;;;;;;;;;32.35;27.70;100351.00;5341315;32;35832;-72
2023/06/19 08:35:52;;;;;;;;;;;;;;;31.97;27.66;100356.00;5367058;32;34704;-75
2023/06/19 08:38:55;;;;;;;;;;;;;;;32.65;26.49;100361.56;5377879;32;34243;-85
2023/06/19 08:41:57;;;;;;;;;;;;;;;32.02;27.18;100359.81;5377932;32;34229;-87
2023/06/19 08:44:59;;;;;;;;;;;;;;;32.34;26.89;100361.06;5378245;32;35637;-77
2023/06/19 08:48:03;;;;;;;;;;;;;;;33.34;25.91;100356.69;5381215;32;34370;-76
2023/06/19 08:51:06;;;;;;;;;;;;;;;32.76;26.92;100353.66;5350290;32;35812;-75
2023/06/19 08:54:08;;;;;;;;;;;;;;;32.60;27.06;100352.16;5366267;32;33980;-75
2023/06/19 08:57:11;;;;;;;;;;;;;;;34.60;24.15;100359.22;5389192;32;34151;-75
2023/06/19 09:00:22;;;;;;;;;;;;;;;35.30;23.26;100352.91;5395600;32;34442;-74
2023/06/19 09:03:25;;;;;;;;;;;;;;;34.63;23.64;100352.47;5389323;32;35257;-76
2023/06/19 09:06:27;;;;;;;;;;;;;;;34.80;23.50;100350.91;5396525;32;34342;-74
2023/06/19 09:09:30;;;;;;;;;;;;;;;36.21;21.63;100344.91;5391558;32;34286;-72
2023/06/19 09:12:33;;;;;;;;;;;;;;;36.07;21.25;100333.28;5388415;32;34943;-76
2023/06/19 09:15:36;;;;;;;;;;;;;;;36.08;21.66;100336.84;5399603;32;34864;-73
2023/06/19 09:18:45;;;;;;;;;;;;;;;37.15;20.42;100334.34;5387679;32;35431;-77
2023/06/19 09:21:47;;;;;;;;;;;;;;;37.05;20.58;100332.19;5396977;32;34662;-73
2023/06/19 09:24:49;;;;;;;;;;;;;;;34.84;22.91;100337.66;5372215;32;34677;-75
2023/06/19 09:27:51;;;;;;;;;;;;;;;36.80;20.94;100329.59;5389423;32;35374;-77
2023/06/19 09:30:53;;;;;;;;;;;;;;;37.68;19.99;100338.97;5383568;32;34913;-72
2023/06/19 09:33:55;;;;;;;;;;;;;;;36.41;21.35;100339.19;5393892;32;35124;-77
2023/06/19 09:36:57;;;;;;;;;;;;;;;34.08;23.29;100341.16;5386283;32;34518;-75
2023/06/19 09:40:00;;;;;;;;;;;;;;;35.22;22.26;100330.25;5395630;32;34456;-72
2023/06/19 09:43:03;;;;;;;;;;;;;;;36.64;20.65;100327.50;5382670;32;34012;-73
2023/06/19 09:46:05;;;;;;;;;;;;;;;35.86;21.48;100325.47;5387039;32;35029;-72
2023/06/19 09:49:08;;;;;;;;;;;;;;;37.42;20.13;100321.09;5387931;32;35127;-82
2023/06/19 09:52:10;;;;;;;;;;;;;;;37.55;19.91;100318.09;5398774;32;35067;-74
2023/06/19 09:55:13;;;;;;;;;;;;;;;37.59;19.47;100324.75;5394098;32;35122;-73
2023/06/19 09:58:16;;;;;;;;;;;;;;;37.82;19.13;100318.47;5383387;32;34236;-73
2023/06/19 10:01:18;;;;;;;;;;;;;;;38.98;18.29;100305.41;5396070;32;34623;-73
2023/06/19 10:04:20;;;;;;;;;;;;;;;38.12;18.79;100306.44;5377653;32;35160;-73
2023/06/19 10:07:23;;;;;;;;;;;;;;;35.00;22.32;100309.84;5400776;32;34708;-74
2023/06/19 10:10:27;;;;;;;;;;;;;;;36.74;20.68;100294.94;5405724;32;35388;-82
2023/06/19 10:13:40;;;;;;;;;;;;;;;38.36;18.62;100293.53;5384797;32;34255;-73
2023/06/19 10:16:43;;;;;;;;;;;;;;;38.09;19.34;100288.56;5396630;32;34303;-81
2023/06/19 10:19:52;;;;;;;;;;;;;;;39.04;18.18;100283.53;5404629;32;34848;-74
2023/06/19 10:22:59;;;;;;;;;;;;;;;38.42;19.08;100287.87;5400168;32;34682;-73
2023/06/19 10:26:01;;;;;;;;;;;;;;;39.03;18.23;100273.59;5406026;32;36364;-84
2023/06/19 10:29:15;;;;;;;;;;;;;;;38.85;17.91;100285.69;5397415;32;35117;-73
2023/06/19 10:32:17;;;;;;;;;;;;;;;38.69;18.23;100284.53;5390240;32;33170;-75
2023/06/19 10:35:21;;;;;;;;;;;;;;;38.75;18.32;100283.56;5392843;32;34508;-76
2023/06/19 10:38:23;;;;;;;;;;;;;;;38.96;17.95;100279.25;5390382;32;34581;-80
2023/06/19 10:41:25;;;;;;;;;;;;;;;39.42;17.19;100271.78;5406628;32;34309;-75
2023/06/19 10:44:27;;;;;;;;;;;;;;;38.29;18.52;100284.59;5397558;32;34524;-76
2023/06/19 10:47:29;;;;;;;;;;;;;;;36.73;20.20;100271.37;5407796;32;34967;-73
2023/06/19 10:50:36;;;;;;;;;;;;;;;38.59;18.47;100268.72;5389143;32;36221;-72
2023/06/19 10:53:38;;;;;;;;;;;;;;;39.12;18.30;100264.69;5405053;32;34632;-71
2023/06/19 10:56:40;;;;;;;;;;;;;;;38.49;18.58;100274.00;5408225;32;35946;-73
2023/06/19 10:59:47;;;;;;;;;;;;;;;38.11;19.10;100278.19;5386080;32;34664;-80
2023/06/19 11:02:49;;;;;;;;;;;;;;;36.11;21.46;100270.72;5378136;32;34371;-80
2023/06/19 11:05:52;;;;;;;;;;;;;;;38.80;18.39;100261.69;5400682;32;35035;-71
2023/06/19 11:08:54;;;;;;;;;;;;;;;40.18;16.64;100264.53;5407094;32;35121;-81
2023/06/19 11:11:58;;;;;;;;;;;;;;;42.06;14.63;100259.72;5374066;32;35634;-73
2023/06/19 11:15:02;;;;;;;;;;;;;;;39.07;18.22;100256.34;5399818;32;34110;-79
2023/06/19 11:18:05;;;;;;;;;;;;;;;40.66;17.02;100254.63;5401288;32;34931;-84
2023/06/19 11:21:07;;;;;;;;;;;;;;;42.18;14.57;100252.03;5402359;32;34646;-78
2023/06/19 11:24:13;;;;;;;;;;;;;;;41.28;15.35;100251.25;5384292;32;34303;-74
2023/06/19 11:27:24;;;;;;;;;;;;;;;43.29;13.25;100251.56;5387239;32;33677;-83
2023/06/19 11:30:32;;;;;;;;;;;;;;;41.55;14.84;100250.34;5395740;32;34436;-72
2023/06/19 11:33:35;;;;;;;;;;;;;;;42.62;14.01;100242.47;5395586;32;34167;-72
2023/06/19 11:36:37;;;;;;;;;;;;;;;41.67;14.75;100242.66;5392952;32;37054;-74
2023/06/19 11:39:40;;;;;;;;;;;;;;;40.44;15.92;100235.34;5392616;32;34934;-74
2023/06/19 11:42:46;;;;;;;;;;;;;;;41.85;14.68;100236.72;5394865;32;34786;-72
2023/06/19 11:45:49;;;;;;;;;;;;;;;39.43;16.77;100234.94;5392055;32;34639;-76
2023/06/19 11:48:51;;;;;;;;;;;;;;;40.78;15.09;100229.66;5389956;32;34789;-80
2023/06/19 11:52:08;;;;;;;;;;;;;;;41.66;14.46;100227.22;5407878;32;34818;-75
2023/06/19 11:55:10;;;;;;;;;;;;;;;42.02;14.26;100219.09;5402200;32;34629;-75
2023/06/19 11:58:12;;;;;;;;;;;;;;;40.01;16.08;100228.00;5403996;32;35150;-83
2023/06/19 12:01:15;;;;;;;;;;;;;;;40.31;15.62;100231.09;5410259;32;34812;-77
2023/06/19 12:04:17;;;;;;;;;;;;;;;36.88;18.86;100230.69;5387957;32;36271;-77
2023/06/19 12:07:20;;;;;;;;;;;;;;;34.79;21.05;100234.59;5402126;32;34431;-74
2023/06/19 12:10:22;;;;;;;;;;;;;;;36.52;19.79;100230.84;5395054;32;35108;-72
2023/06/19 12:13:24;;;;;;;;;;;;;;;36.44;20.00;100231.16;5389936;32;34072;-76
2023/06/19 12:16:28;;;;;;;;;;;;;;;36.63;19.33;100229.19;5407053;32;34182;-76
2023/06/19 12:19:30;;;;;;;;;;;;;;;35.26;20.01;100226.84;5400266;32;34134;-73
2023/06/19 12:22:33;;;;;;;;;;;;;;;35.22;20.36;100220.16;5402923;32;34092;-77
2023/06/19 12:25:35;;;;;;;;;;;;;;;35.07;20.79;100217.78;5401199;32;36189;-84
2023/06/19 12:28:37;;;;;;;;;;;;;;;35.93;20.11;100216.87;5402524;32;33700;-84
2023/06/19 12:31:39;;;;;;;;;;;;;;;36.35;19.23;100208.75;5405900;32;37207;-70
2023/06/19 12:34:46;;;;;;;;;;;;;;;34.05;21.78;100208.78;5403235;32;35404;-83
2023/06/19 12:37:48;;;;;;;;;;;;;;;35.01;20.75;100205.88;5400029;32;34896;-70
2023/06/19 12:40:50;;;;;;;;;;;;;;;34.35;21.84;100211.78;5398647;32;35949;-85
2023/06/19 12:43:52;;;;;;;;;;;;;;;34.40;21.53;100208.41;5398641;32;34756;-73
2023/06/19 12:46:54;;;;;;;;;;;;;;;34.47;21.60;100192.84;5390186;32;35201;-76
2023/06/19 12:49:56;;;;;;;;;;;;;;;34.55;21.28;100197.19;5396084;32;36480;-73
2023/06/19 12:52:58;;;;;;;;;;;;;;;35.48;20.39;100206.25;5405916;32;34703;-70
2023/06/19 12:56:00;;;;;;;;;;;;;;;33.37;22.58;100201.03;5398326;32;35413;-73
2023/06/19 12:59:05;;;;;;;;;;;;;;;32.69;24.66;100200.44;5381981;32;35381;-71
2023/06/19 13:02:08;;;;;;;;;;;;;;;33.10;24.28;100193.94;5401758;32;34151;-77
2023/06/19 13:05:10;;;;;;;;;;;;;;;33.49;24.05;100195.81;5386559;32;33604;-82
2023/06/19 13:08:12;;;;;;;;;;;;;;;33.82;23.45;100198.41;5399019;32;34084;-75
2023/06/19 13:11:15;;;;;;;;;;;;;;;33.61;24.00;100187.78;5398308;32;34963;-71
2023/06/19 13:14:17;;;;;;;;;;;;;;;33.88;23.41;100180.34;5405012;32;34101;-73
2023/06/19 13:17:19;;;;;;;;;;;;;;;34.34;22.75;100179.28;5405394;32;36033;-72
2023/06/19 13:20:21;;;;;;;;;;;;;;;34.26;22.62;100174.88;5405213;32;34328;-73
2023/06/19 13:23:24;;;;;;;;;;;;;;;33.48;23.52;100185.09;5402283;32;34300;-70
2023/06/19 13:26:26;;;;;;;;;;;;;;;33.02;24.35;100175.94;5391934;32;34296;-78
2023/06/19 13:29:28;;;;;;;;;;;;;;;33.76;23.30;100172.00;5404290;32;34298;-81
2023/06/19 13:32:30;;;;;;;;;;;;;;;33.27;24.08;100178.00;5361533;32;34284;-74
2023/06/19 13:35:33;;;;;;;;;;;;;;;33.98;22.96;100169.81;5360056;32;34416;-76
2023/06/19 13:42:41;;;;;;;;;;;;;;;33.39;23.45;100174.44;5340903;32;35943;-70
2023/06/19 13:45:47;;;;;;;;;;;;;;;33.74;23.21;100168.66;5348350;32;35125;-75
2023/06/19 13:48:51;;;;;;;;;;;;;;;34.11;22.89;100164.28;5364778;32;35581;-80
2023/06/19 13:51:54;;;;;;;;;;;;;;;34.07;22.64;100163.06;5371220;32;34200;-72
2023/06/19 13:54:56;;;;;;;;;;;;;;;34.20;22.78;100159.44;5352518;32;36323;-85
2023/06/19 13:58:01;;;;;;;;;;;;;;;33.04;24.28;100173.00;5370129;32;34441;-76
2023/06/19 14:01:03;;;;;;;;;;;;;;;33.42;24.11;100174.00;5356481;32;35753;-83
2023/06/19 14:04:06;;;;;;;;;;;;;;;33.53;23.60;100172.50;5367524;32;35474;-80
2023/06/19 14:07:09;;;;;;;;;;;;;;;33.66;23.27;100166.16;5372977;32;34226;-74
2023/06/19 14:10:12;;;;;;;;;;;;;;;33.22;24.19;100167.75;5369574;32;35401;-79
2023/06/19 14:13:14;;;;;;;;;;;;;;;34.06;22.58;100163.28;5369543;32;34767;-71
2023/06/19 14:16:16;;;;;;;;;;;;;;;34.54;22.03;100170.97;5371549;32;35478;-70
2023/06/19 14:19:23;;;;;;;;;;;;;;;34.31;22.06;100161.44;5369450;32;35263;-71
2023/06/19 14:22:25;;;;;;;;;;;;;;;33.84;22.71;100162.75;5367594;32;36572;-74
2023/06/19 14:25:27;;;;;;;;;;;;;;;33.59;22.91;100151.75;5352897;32;35493;-72
2023/06/19 14:28:29;;;;;;;;;;;;;;;34.49;21.87;100160.72;5373189;32;34305;-73
2023/06/19 14:31:31;;;;;;;;;;;;;;;33.31;23.51;100155.59;5369300;32;35369;-84
2023/06/19 14:34:34;;;;;;;;;;;;;;;33.60;23.28;100154.25;5362065;32;36062;-80
2023/06/19 14:37:36;;;;;;;;;;;;;;;33.92;22.71;100154.34;5344737;32;35906;-73
2023/06/19 14:40:39;;;;;;;;;;;;;;;34.47;21.97;100163.66;5365650;32;34168;-72
2023/06/19 14:43:41;;;;;;;;;;;;;;;34.50;21.86;100156.09;5367549;32;33980;-70
2023/06/19 14:46:43;;;;;;;;;;;;;;;33.42;23.20;100163.09;5365120;32;34191;-72
2023/06/19 14:49:46;;;;;;;;;;;;;;;33.41;23.42;100158.72;5371241;32;34261;-69
2023/06/19 14:52:47;;;;;;;;;;;;;;;33.36;23.82;100163.97;5391318;32;36823;-72
2023/06/19 14:55:50;;;;;;;;;;;;;;;33.88;22.93;100153.09;5396055;32;34401;-74
2023/06/19 14:58:52;;;;;;;;;;;;;;;33.14;23.61;100162.53;5404052;32;35248;-78
2023/06/19 15:01:54;;;;;;;;;;;;;;;34.01;22.71;100153.06;5406374;32;34260;-72
2023/06/19 15:04:56;;;;;;;;;;;;;;;33.73;22.86;100150.62;5379881;32;34475;-72
2023/06/19 15:08:09;;;;;;;;;;;;;;;33.77;22.70;100143.69;5405292;32;34702;-69
2023/06/19 15:11:12;;;;;;;;;;;;;;;33.49;23.05;100144.03;5363691;32;36966;-70
2023/06/19 15:14:14;;;;;;;;;;;;;;;33.44;23.13;100152.00;5329325;32;34164;-74
2023/06/19 15:17:16;;;;;;;;;;;;;;;33.15;23.73;100148.69;5370946;32;34419;-73
2023/06/19 15:20:20;;;;;;;;;;;;;;;32.93;24.32;100146.44;5361369;32;35558;-74
2023/06/19 15:23:22;;;;;;;;;;;;;;;33.24;23.98;100153.94;5362888;32;35369;-72
2023/06/19 15:26:25;;;;;;;;;;;;;;;33.14;24.16;100144.31;5334807;32;980167;-71
2023/06/19 15:29:27;;;;;;;;;;;;;;;33.12;24.36;100153.75;5356739;32;35326;-72
2023/06/19 15:32:29;;;;;;;;;;;;;;;32.85;24.46;100152.94;5366425;32;35448;-75
2023/06/19 15:35:31;;;;;;;;;;;;;;;32.78;24.54;100152.06;5359302;32;34163;-75
2023/06/19 15:38:33;;;;;;;;;;;;;;;32.64;24.63;100151.22;5366437;32;35631;-74
2023/06/19 15:41:35;;;;;;;;;;;;;;;33.26;24.15;100149.09;5364613;32;34359;-74